Dunkirk, Maryland
Current Conditions -  °F | °C
As of 8:58 PM on Saturday 22 Nov 2014 (Local Time) from KADW Reporting Station
Broken Clouds Broken Clouds  
Wind Chill: 32°   Ceiling: 11000
Heat Index: 38°   Visibility: 10mi
Dew Point: 18°   Wind: 7mph
Humidity: 45%   Direction: 210°SSW
Pressure: 30.28"   Gusts: NA
Location:  38.72°N, 76.66°W
Report Text: KADW 230158Z AUTO 21006KT 10SM BKN110 03/M08 A3028 RMK AO2 SLP263 T00321076 $
Loading
Personal Weather Stations






























Interactive Weather Map New forecast layout! Learn more

10-Day Weather Forecast

Advertisements
Track Severe Weather on mobile